sensor_id;sensor_type;location;lat;lon;timestamp;P1;durP1;ratioP1;P2;durP2;ratioP2
22652;SDS011;11493;43.344;26.226;2022-12-07T00:01:22;58.40;;;16.90;;
22652;SDS011;11493;43.344;26.226;2022-12-07T00:03:55;53.13;;;16.27;;
22652;SDS011;11493;43.344;26.226;2022-12-07T00:06:27;56.78;;;17.13;;
22652;SDS011;11493;43.344;26.226;2022-12-07T00:08:54;42.13;;;14.27;;
22652;SDS011;11493;43.344;26.226;2022-12-07T00:11:21;56.00;;;21.70;;
22652;SDS011;11493;43.344;26.226;2022-12-07T00:13:53;53.88;;;18.05;;
22652;SDS011;11493;43.344;26.226;2022-12-07T00:16:23;52.28;;;17.20;;
22652;SDS011;11493;43.344;26.226;2022-12-07T00:18:52;38.28;;;15.93;;
22652;SDS011;11493;43.344;26.226;2022-12-07T00:21:21;27.08;;;13.13;;
22652;SDS011;11493;43.344;26.226;2022-12-07T00:23:50;32.90;;;10.45;;
22652;SDS011;11493;43.344;26.226;2022-12-07T00:26:23;37.70;;;13.00;;
22652;SDS011;11493;43.344;26.226;2022-12-07T00:28:53;51.33;;;12.85;;
22652;SDS011;11493;43.344;26.226;2022-12-07T00:31:22;58.17;;;13.50;;
22652;SDS011;11493;43.344;26.226;2022-12-07T00:33:52;56.13;;;12.77;;
22652;SDS011;11493;43.344;26.226;2022-12-07T00:36:20;58.03;;;11.25;;
22652;SDS011;11493;43.344;26.226;2022-12-07T00:38:53;85.30;;;11.50;;
22652;SDS011;11493;43.344;26.226;2022-12-07T00:41:22;49.47;;;11.65;;
22652;SDS011;11493;43.344;26.226;2022-12-07T00:43:50;60.15;;;11.68;;
22652;SDS011;11493;43.344;26.226;2022-12-07T00:46:19;49.00;;;11.90;;
22652;SDS011;11493;43.344;26.226;2022-12-07T00:48:47;96.75;;;11.40;;
22652;SDS011;11493;43.344;26.226;2022-12-07T00:51:16;74.55;;;13.75;;
22652;SDS011;11493;43.344;26.226;2022-12-07T00:53:44;122.05;;;12.05;;
22652;SDS011;11493;43.344;26.226;2022-12-07T00:56:12;82.68;;;12.25;;
22652;SDS011;11493;43.344;26.226;2022-12-07T00:58:44;67.20;;;11.55;;
22652;SDS011;11493;43.344;26.226;2022-12-07T01:01:16;79.97;;;11.75;;
22652;SDS011;11493;43.344;26.226;2022-12-07T01:03:44;75.30;;;13.23;;
22652;SDS011;11493;43.344;26.226;2022-12-07T01:06:13;72.95;;;13.52;;
22652;SDS011;11493;43.344;26.226;2022-12-07T01:08:42;64.50;;;11.45;;
22652;SDS011;11493;43.344;26.226;2022-12-07T01:11:11;41.78;;;11.45;;
22652;SDS011;11493;43.344;26.226;2022-12-07T01:13:41;37.67;;;10.82;;
22652;SDS011;11493;43.344;26.226;2022-12-07T01:16:09;46.35;;;11.25;;
22652;SDS011;11493;43.344;26.226;2022-12-07T01:18:39;19.58;;;11.05;;
22652;SDS011;11493;43.344;26.226;2022-12-07T01:21:12;34.55;;;13.27;;
22652;SDS011;11493;43.344;26.226;2022-12-07T01:23:41;27.48;;;12.75;;
22652;SDS011;11493;43.344;26.226;2022-12-07T01:26:12;16.67;;;11.40;;
22652;SDS011;11493;43.344;26.226;2022-12-07T01:28:41;21.58;;;13.02;;
22652;SDS011;11493;43.344;26.226;2022-12-07T01:31:12;22.90;;;13.80;;
22652;SDS011;11493;43.344;26.226;2022-12-07T01:33:42;12.23;;;9.70;;
22652;SDS011;11493;43.344;26.226;2022-12-07T01:36:15;16.45;;;10.10;;
22652;SDS011;11493;43.344;26.226;2022-12-07T01:38:43;14.57;;;9.40;;
22652;SDS011;11493;43.344;26.226;2022-12-07T01:41:11;10.85;;;8.20;;
22652;SDS011;11493;43.344;26.226;2022-12-07T01:46:57;14.93;;;7.90;;
22652;SDS011;11493;43.344;26.226;2022-12-07T01:54:42;9.05;;;6.95;;
22652;SDS011;11493;43.344;26.226;2022-12-07T01:57:11;8.68;;;6.82;;
22652;SDS011;11493;43.344;26.226;2022-12-07T01:59:41;7.85;;;6.65;;
22652;SDS011;11493;43.344;26.226;2022-12-07T02:02:11;8.43;;;7.53;;
22652;SDS011;11493;43.344;26.226;2022-12-07T02:04:44;8.55;;;7.53;;
22652;SDS011;11493;43.344;26.226;2022-12-07T02:07:12;10.05;;;6.85;;
22652;SDS011;11493;43.344;26.226;2022-12-07T02:09:41;9.25;;;6.75;;
22652;SDS011;11493;43.344;26.226;2022-12-07T02:12:08;9.38;;;6.35;;
22652;SDS011;11493;43.344;26.226;2022-12-07T02:14:36;11.82;;;7.80;;
22652;SDS011;11493;43.344;26.226;2022-12-07T02:17:51;10.45;;;8.10;;
22652;SDS011;11493;43.344;26.226;2022-12-07T02:20:17;10.43;;;8.13;;
22652;SDS011;11493;43.344;26.226;2022-12-07T02:23:00;11.07;;;8.48;;
22652;SDS011;11493;43.344;26.226;2022-12-07T02:28:36;11.57;;;8.20;;
22652;SDS011;11493;43.344;26.226;2022-12-07T02:31:13;9.35;;;7.35;;
22652;SDS011;11493;43.344;26.226;2022-12-07T02:33:57;8.20;;;7.25;;
22652;SDS011;11493;43.344;26.226;2022-12-07T02:36:34;8.10;;;6.80;;
22652;SDS011;11493;43.344;26.226;2022-12-07T02:39:20;10.52;;;7.65;;
22652;SDS011;11493;43.344;26.226;2022-12-07T02:41:56;12.88;;;7.30;;
22652;SDS011;11493;43.344;26.226;2022-12-07T02:44:27;12.25;;;8.27;;
22652;SDS011;11493;43.344;26.226;2022-12-07T02:46:58;15.35;;;8.15;;
22652;SDS011;11493;43.344;26.226;2022-12-07T02:49:29;12.20;;;8.18;;
22652;SDS011;11493;43.344;26.226;2022-12-07T02:51:58;16.80;;;8.65;;
22652;SDS011;11493;43.344;26.226;2022-12-07T02:54:25;13.80;;;8.90;;
22652;SDS011;11493;43.344;26.226;2022-12-07T03:13:49;30.70;;;17.98;;
22652;SDS011;11493;43.344;26.226;2022-12-07T03:16:21;31.42;;;17.67;;
22652;SDS011;11493;43.344;26.226;2022-12-07T03:19:02;32.55;;;19.30;;
22652;SDS011;11493;43.344;26.226;2022-12-07T03:21:34;24.70;;;13.63;;
22652;SDS011;11493;43.344;26.226;2022-12-07T03:24:07;25.83;;;13.50;;
22652;SDS011;11493;43.344;26.226;2022-12-07T03:26:39;32.33;;;13.73;;
22652;SDS011;11493;43.344;26.226;2022-12-07T03:29:12;44.70;;;12.52;;
22652;SDS011;11493;43.344;26.226;2022-12-07T03:31:48;41.58;;;11.50;;
22652;SDS011;11493;43.344;26.226;2022-12-07T03:34:29;32.00;;;12.57;;
22652;SDS011;11493;43.344;26.226;2022-12-07T03:37:04;30.23;;;10.38;;
22652;SDS011;11493;43.344;26.226;2022-12-07T03:42:11;28.45;;;10.65;;
22652;SDS011;11493;43.344;26.226;2022-12-07T03:44:39;22.05;;;11.05;;
22652;SDS011;11493;43.344;26.226;2022-12-07T03:49:45;66.93;;;13.90;;
22652;SDS011;11493;43.344;26.226;2022-12-07T03:55:19;36.22;;;13.82;;
22652;SDS011;11493;43.344;26.226;2022-12-07T03:57:51;30.60;;;14.27;;
22652;SDS011;11493;43.344;26.226;2022-12-07T04:02:51;20.00;;;11.68;;
22652;SDS011;11493;43.344;26.226;2022-12-07T04:05:19;31.85;;;12.23;;
22652;SDS011;11493;43.344;26.226;2022-12-07T04:07:47;32.35;;;15.45;;
22652;SDS011;11493;43.344;26.226;2022-12-07T04:10:14;33.70;;;13.73;;
22652;SDS011;11493;43.344;26.226;2022-12-07T04:12:41;28.23;;;13.98;;
22652;SDS011;11493;43.344;26.226;2022-12-07T04:15:08;36.92;;;12.20;;
22652;SDS011;11493;43.344;26.226;2022-12-07T04:17:37;36.97;;;13.43;;
22652;SDS011;11493;43.344;26.226;2022-12-07T04:20:05;55.15;;;13.20;;
22652;SDS011;11493;43.344;26.226;2022-12-07T04:22:33;71.70;;;14.55;;
22652;SDS011;11493;43.344;26.226;2022-12-07T04:25:00;67.15;;;16.80;;
22652;SDS011;11493;43.344;26.226;2022-12-07T04:27:27;98.18;;;19.02;;
22652;SDS011;11493;43.344;26.226;2022-12-07T04:29:54;54.05;;;17.42;;
22652;SDS011;11493;43.344;26.226;2022-12-07T04:32:22;90.90;;;20.60;;
22652;SDS011;11493;43.344;26.226;2022-12-07T04:34:50;100.55;;;17.70;;
22652;SDS011;11493;43.344;26.226;2022-12-07T04:37:21;64.85;;;15.68;;
22652;SDS011;11493;43.344;26.226;2022-12-07T04:39:48;49.30;;;16.30;;
22652;SDS011;11493;43.344;26.226;2022-12-07T04:42:16;48.88;;;19.45;;
22652;SDS011;11493;43.344;26.226;2022-12-07T04:44:43;54.92;;;27.42;;
22652;SDS011;11493;43.344;26.226;2022-12-07T04:47:11;79.68;;;43.00;;
22652;SDS011;11493;43.344;26.226;2022-12-07T04:49:38;56.17;;;26.50;;
22652;SDS011;11493;43.344;26.226;2022-12-07T04:52:05;50.35;;;26.02;;
22652;SDS011;11493;43.344;26.226;2022-12-07T04:54:32;67.68;;;34.30;;
22652;SDS011;11493;43.344;26.226;2022-12-07T04:57:00;39.08;;;19.98;;
22652;SDS011;11493;43.344;26.226;2022-12-07T04:59:27;35.83;;;13.10;;
22652;SDS011;11493;43.344;26.226;2022-12-07T05:01:54;31.50;;;13.45;;
22652;SDS011;11493;43.344;26.226;2022-12-07T05:04:21;35.38;;;13.32;;
22652;SDS011;11493;43.344;26.226;2022-12-07T05:06:48;31.25;;;13.98;;
22652;SDS011;11493;43.344;26.226;2022-12-07T05:09:15;33.25;;;13.63;;
22652;SDS011;11493;43.344;26.226;2022-12-07T05:11:42;29.08;;;13.43;;
22652;SDS011;11493;43.344;26.226;2022-12-07T05:16:37;45.33;;;17.40;;
22652;SDS011;11493;43.344;26.226;2022-12-07T05:19:04;79.28;;;32.50;;
22652;SDS011;11493;43.344;26.226;2022-12-07T05:21:32;41.15;;;18.95;;
22652;SDS011;11493;43.344;26.226;2022-12-07T05:23:59;43.05;;;18.60;;
22652;SDS011;11493;43.344;26.226;2022-12-07T05:26:27;57.75;;;22.95;;
22652;SDS011;11493;43.344;26.226;2022-12-07T05:28:55;50.78;;;20.77;;
22652;SDS011;11493;43.344;26.226;2022-12-07T05:31:22;63.53;;;18.80;;
22652;SDS011;11493;43.344;26.226;2022-12-07T05:33:51;33.50;;;14.25;;
22652;SDS011;11493;43.344;26.226;2022-12-07T05:36:28;35.80;;;16.05;;
22652;SDS011;11493;43.344;26.226;2022-12-07T05:38:57;42.97;;;17.83;;
22652;SDS011;11493;43.344;26.226;2022-12-07T05:41:27;42.45;;;16.60;;
22652;SDS011;11493;43.344;26.226;2022-12-07T05:44:13;39.58;;;15.80;;
22652;SDS011;11493;43.344;26.226;2022-12-07T05:46:41;38.42;;;17.05;;
22652;SDS011;11493;43.344;26.226;2022-12-07T05:49:08;40.25;;;18.30;;
22652;SDS011;11493;43.344;26.226;2022-12-07T05:51:35;45.53;;;19.08;;
22652;SDS011;11493;43.344;26.226;2022-12-07T05:54:03;43.72;;;21.20;;
22652;SDS011;11493;43.344;26.226;2022-12-07T05:56:30;45.70;;;19.38;;
22652;SDS011;11493;43.344;26.226;2022-12-07T05:59:00;42.13;;;19.65;;
22652;SDS011;11493;43.344;26.226;2022-12-07T06:01:46;48.90;;;21.40;;
22652;SDS011;11493;43.344;26.226;2022-12-07T06:04:14;44.67;;;22.30;;
22652;SDS011;11493;43.344;26.226;2022-12-07T06:06:41;53.90;;;23.10;;
22652;SDS011;11493;43.344;26.226;2022-12-07T06:09:08;50.97;;;24.10;;
22652;SDS011;11493;43.344;26.226;2022-12-07T06:11:42;47.40;;;21.48;;
22652;SDS011;11493;43.344;26.226;2022-12-07T06:14:28;39.17;;;18.33;;
22652;SDS011;11493;43.344;26.226;2022-12-07T06:17:01;41.22;;;20.40;;
22652;SDS011;11493;43.344;26.226;2022-12-07T06:19:29;44.92;;;21.60;;
22652;SDS011;11493;43.344;26.226;2022-12-07T06:21:56;36.78;;;19.48;;
22652;SDS011;11493;43.344;26.226;2022-12-07T06:24:24;41.63;;;19.55;;
22652;SDS011;11493;43.344;26.226;2022-12-07T06:26:51;34.08;;;15.93;;
22652;SDS011;11493;43.344;26.226;2022-12-07T06:29:18;33.03;;;17.42;;
22652;SDS011;11493;43.344;26.226;2022-12-07T06:31:49;29.95;;;16.30;;
22652;SDS011;11493;43.344;26.226;2022-12-07T06:34:26;25.83;;;13.35;;
22652;SDS011;11493;43.344;26.226;2022-12-07T06:36:53;28.88;;;14.93;;
22652;SDS011;11493;43.344;26.226;2022-12-07T06:39:23;27.05;;;13.77;;
22652;SDS011;11493;43.344;26.226;2022-12-07T06:41:52;25.65;;;13.55;;
22652;SDS011;11493;43.344;26.226;2022-12-07T06:44:20;28.00;;;14.57;;
22652;SDS011;11493;43.344;26.226;2022-12-07T06:46:48;27.40;;;14.73;;
22652;SDS011;11493;43.344;26.226;2022-12-07T06:49:16;26.75;;;13.90;;
22652;SDS011;11493;43.344;26.226;2022-12-07T06:51:46;31.27;;;16.40;;
22652;SDS011;11493;43.344;26.226;2022-12-07T06:54:21;26.23;;;14.45;;
22652;SDS011;11493;43.344;26.226;2022-12-07T06:56:49;24.73;;;13.48;;
22652;SDS011;11493;43.344;26.226;2022-12-07T06:59:16;28.85;;;14.68;;
22652;SDS011;11493;43.344;26.226;2022-12-07T07:01:44;32.08;;;16.25;;
22652;SDS011;11493;43.344;26.226;2022-12-07T07:04:11;27.25;;;13.55;;
22652;SDS011;11493;43.344;26.226;2022-12-07T07:06:39;29.15;;;14.77;;
22652;SDS011;11493;43.344;26.226;2022-12-07T07:09:06;25.65;;;13.57;;
22652;SDS011;11493;43.344;26.226;2022-12-07T07:11:33;33.22;;;15.98;;
22652;SDS011;11493;43.344;26.226;2022-12-07T07:14:00;33.42;;;17.70;;
22652;SDS011;11493;43.344;26.226;2022-12-07T07:16:29;24.33;;;13.77;;
22652;SDS011;11493;43.344;26.226;2022-12-07T07:18:58;22.00;;;13.32;;
22652;SDS011;11493;43.344;26.226;2022-12-07T07:21:26;24.23;;;12.57;;
22652;SDS011;11493;43.344;26.226;2022-12-07T07:23:53;25.98;;;13.77;;
22652;SDS011;11493;43.344;26.226;2022-12-07T07:26:20;28.00;;;15.30;;
22652;SDS011;11493;43.344;26.226;2022-12-07T07:28:49;26.83;;;15.57;;
22652;SDS011;11493;43.344;26.226;2022-12-07T07:31:16;30.13;;;17.10;;
22652;SDS011;11493;43.344;26.226;2022-12-07T07:33:44;86.78;;;58.22;;
22652;SDS011;11493;43.344;26.226;2022-12-07T07:36:15;23.15;;;13.32;;
22652;SDS011;11493;43.344;26.226;2022-12-07T07:38:42;29.33;;;13.88;;
22652;SDS011;11493;43.344;26.226;2022-12-07T07:41:10;25.42;;;14.52;;
22652;SDS011;11493;43.344;26.226;2022-12-07T07:43:40;33.22;;;18.50;;
22652;SDS011;11493;43.344;26.226;2022-12-07T07:46:28;38.65;;;19.60;;
22652;SDS011;11493;43.344;26.226;2022-12-07T07:48:55;28.98;;;15.70;;
22652;SDS011;11493;43.344;26.226;2022-12-07T07:51:22;29.30;;;15.35;;
22652;SDS011;11493;43.344;26.226;2022-12-07T07:53:49;20.38;;;14.10;;
22652;SDS011;11493;43.344;26.226;2022-12-07T07:56:17;26.15;;;14.57;;
22652;SDS011;11493;43.344;26.226;2022-12-07T07:58:46;25.05;;;13.95;;
22652;SDS011;11493;43.344;26.226;2022-12-07T08:01:14;23.17;;;13.63;;
22652;SDS011;11493;43.344;26.226;2022-12-07T08:03:49;26.13;;;13.60;;
22652;SDS011;11493;43.344;26.226;2022-12-07T08:07:39;31.73;;;19.55;;
22652;SDS011;11493;43.344;26.226;2022-12-07T08:10:52;45.30;;;27.27;;
22652;SDS011;11493;43.344;26.226;2022-12-07T08:13:20;52.45;;;35.83;;
22652;SDS011;11493;43.344;26.226;2022-12-07T08:15:55;37.75;;;24.13;;
22652;SDS011;11493;43.344;26.226;2022-12-07T08:18:22;52.03;;;31.27;;
22652;SDS011;11493;43.344;26.226;2022-12-07T08:20:50;44.83;;;28.40;;
22652;SDS011;11493;43.344;26.226;2022-12-07T08:23:17;42.05;;;25.48;;
22652;SDS011;11493;43.344;26.226;2022-12-07T08:25:49;46.25;;;24.80;;
22652;SDS011;11493;43.344;26.226;2022-12-07T08:28:16;47.95;;;26.17;;
22652;SDS011;11493;43.344;26.226;2022-12-07T08:30:45;36.13;;;19.48;;
22652;SDS011;11493;43.344;26.226;2022-12-07T08:33:15;24.35;;;15.05;;
22652;SDS011;11493;43.344;26.226;2022-12-07T08:35:43;31.70;;;16.55;;
22652;SDS011;11493;43.344;26.226;2022-12-07T08:38:13;26.63;;;13.43;;
22652;SDS011;11493;43.344;26.226;2022-12-07T08:40:42;23.83;;;12.57;;
22652;SDS011;11493;43.344;26.226;2022-12-07T08:43:09;23.40;;;13.88;;
22652;SDS011;11493;43.344;26.226;2022-12-07T08:45:37;20.40;;;12.68;;
22652;SDS011;11493;43.344;26.226;2022-12-07T08:48:08;16.63;;;10.93;;
22652;SDS011;11493;43.344;26.226;2022-12-07T08:50:38;15.45;;;10.75;;
22652;SDS011;11493;43.344;26.226;2022-12-07T08:53:14;14.15;;;10.77;;
22652;SDS011;11493;43.344;26.226;2022-12-07T08:55:43;21.60;;;14.27;;
22652;SDS011;11493;43.344;26.226;2022-12-07T08:58:13;38.83;;;19.47;;
22652;SDS011;11493;43.344;26.226;2022-12-07T09:00:41;18.25;;;12.57;;
22652;SDS011;11493;43.344;26.226;2022-12-07T09:03:13;20.73;;;15.18;;
22652;SDS011;11493;43.344;26.226;2022-12-07T09:05:42;28.30;;;12.98;;
22652;SDS011;11493;43.344;26.226;2022-12-07T09:08:09;17.70;;;13.40;;
22652;SDS011;11493;43.344;26.226;2022-12-07T09:10:36;23.40;;;14.30;;
22652;SDS011;11493;43.344;26.226;2022-12-07T09:13:04;18.70;;;12.65;;
22652;SDS011;11493;43.344;26.226;2022-12-07T09:15:34;21.85;;;15.27;;
22652;SDS011;11493;43.344;26.226;2022-12-07T09:18:01;15.18;;;11.15;;
22652;SDS011;11493;43.344;26.226;2022-12-07T09:20:31;25.60;;;14.05;;
22652;SDS011;11493;43.344;26.226;2022-12-07T09:23:00;17.98;;;12.93;;
22652;SDS011;11493;43.344;26.226;2022-12-07T09:25:30;20.23;;;14.35;;
22652;SDS011;11493;43.344;26.226;2022-12-07T09:27:57;26.75;;;16.70;;
22652;SDS011;11493;43.344;26.226;2022-12-07T09:30:26;26.75;;;17.02;;
22652;SDS011;11493;43.344;26.226;2022-12-07T09:32:55;21.48;;;15.70;;
22652;SDS011;11493;43.344;26.226;2022-12-07T09:35:24;35.40;;;16.95;;
22652;SDS011;11493;43.344;26.226;2022-12-07T09:37:52;38.03;;;18.98;;
22652;SDS011;11493;43.344;26.226;2022-12-07T09:40:22;29.35;;;19.42;;
22652;SDS011;11493;43.344;26.226;2022-12-07T09:42:51;29.95;;;19.73;;
22652;SDS011;11493;43.344;26.226;2022-12-07T09:45:25;37.95;;;25.42;;
22652;SDS011;11493;43.344;26.226;2022-12-07T09:47:56;29.85;;;19.05;;
22652;SDS011;11493;43.344;26.226;2022-12-07T09:50:26;35.97;;;26.35;;
22652;SDS011;11493;43.344;26.226;2022-12-07T09:52:55;29.42;;;21.10;;
22652;SDS011;11493;43.344;26.226;2022-12-07T09:55:39;31.80;;;20.55;;
22652;SDS011;11493;43.344;26.226;2022-12-07T09:58:12;31.40;;;18.77;;
22652;SDS011;11493;43.344;26.226;2022-12-07T10:00:47;26.58;;;14.95;;
22652;SDS011;11493;43.344;26.226;2022-12-07T10:03:21;37.30;;;16.77;;
22652;SDS011;11493;43.344;26.226;2022-12-07T10:05:49;22.40;;;15.70;;
22652;SDS011;11493;43.344;26.226;2022-12-07T10:08:17;26.15;;;18.02;;
22652;SDS011;11493;43.344;26.226;2022-12-07T10:10:47;29.90;;;19.00;;
22652;SDS011;11493;43.344;26.226;2022-12-07T10:13:22;24.92;;;16.50;;
22652;SDS011;11493;43.344;26.226;2022-12-07T10:18:53;40.28;;;21.10;;
22652;SDS011;11493;43.344;26.226;2022-12-07T10:21:21;33.35;;;19.05;;
22652;SDS011;11493;43.344;26.226;2022-12-07T10:29:36;24.52;;;14.70;;
22652;SDS011;11493;43.344;26.226;2022-12-07T10:32:21;22.70;;;14.98;;
22652;SDS011;11493;43.344;26.226;2022-12-07T10:35:22;22.48;;;14.88;;
22652;SDS011;11493;43.344;26.226;2022-12-07T10:37:52;19.05;;;13.25;;
22652;SDS011;11493;43.344;26.226;2022-12-07T10:51:36;20.13;;;12.98;;
22652;SDS011;11493;43.344;26.226;2022-12-07T10:54:17;16.98;;;11.75;;
22652;SDS011;11493;43.344;26.226;2022-12-07T10:57:08;26.30;;;13.20;;
22652;SDS011;11493;43.344;26.226;2022-12-07T11:05:29;42.60;;;18.63;;
22652;SDS011;11493;43.344;26.226;2022-12-07T11:10:55;30.10;;;17.17;;
22652;SDS011;11493;43.344;26.226;2022-12-07T11:13:28;24.85;;;15.05;;
22652;SDS011;11493;43.344;26.226;2022-12-07T11:16:04;33.63;;;18.13;;
22652;SDS011;11493;43.344;26.226;2022-12-07T11:24:19;28.98;;;15.93;;
22652;SDS011;11493;43.344;26.226;2022-12-07T11:38:18;22.80;;;13.50;;
22652;SDS011;11493;43.344;26.226;2022-12-07T11:40:55;20.80;;;12.23;;
22652;SDS011;11493;43.344;26.226;2022-12-07T11:43:51;26.00;;;15.80;;
22652;SDS011;11493;43.344;26.226;2022-12-07T11:46:19;21.95;;;12.65;;
22652;SDS011;11493;43.344;26.226;2022-12-07T11:49:11;18.95;;;12.05;;
22652;SDS011;11493;43.344;26.226;2022-12-07T11:52:00;22.15;;;11.98;;
22652;SDS011;11493;43.344;26.226;2022-12-07T11:57:10;32.47;;;16.02;;
22652;SDS011;11493;43.344;26.226;2022-12-07T11:59:47;20.02;;;11.20;;
22652;SDS011;11493;43.344;26.226;2022-12-07T12:02:20;22.67;;;11.50;;
22652;SDS011;11493;43.344;26.226;2022-12-07T12:04:55;23.15;;;12.85;;
22652;SDS011;11493;43.344;26.226;2022-12-07T12:07:30;23.00;;;12.90;;
22652;SDS011;11493;43.344;26.226;2022-12-07T12:10:21;40.92;;;18.77;;
22652;SDS011;11493;43.344;26.226;2022-12-07T12:21:49;23.50;;;10.68;;
22652;SDS011;11493;43.344;26.226;2022-12-07T12:24:25;17.92;;;10.05;;
22652;SDS011;11493;43.344;26.226;2022-12-07T12:27:01;23.23;;;11.13;;
22652;SDS011;11493;43.344;26.226;2022-12-07T12:29:33;22.23;;;12.98;;
22652;SDS011;11493;43.344;26.226;2022-12-07T12:32:16;18.73;;;10.80;;
22652;SDS011;11493;43.344;26.226;2022-12-07T12:42:55;33.05;;;25.65;;
22652;SDS011;11493;43.344;26.226;2022-12-07T12:45:24;15.70;;;10.33;;
22652;SDS011;11493;43.344;26.226;2022-12-07T12:50:32;24.20;;;10.98;;
22652;SDS011;11493;43.344;26.226;2022-12-07T12:53:21;25.55;;;11.10;;
22652;SDS011;11493;43.344;26.226;2022-12-07T12:58:37;22.50;;;13.45;;
22652;SDS011;11493;43.344;26.226;2022-12-07T13:03:57;18.73;;;11.70;;
22652;SDS011;11493;43.344;26.226;2022-12-07T13:08:54;24.38;;;16.15;;
22652;SDS011;11493;43.344;26.226;2022-12-07T13:11:32;17.08;;;11.68;;
22652;SDS011;11493;43.344;26.226;2022-12-07T13:15:30;23.42;;;12.93;;
22652;SDS011;11493;43.344;26.226;2022-12-07T13:17:08;21.25;;;12.35;;
22652;SDS011;11493;43.344;26.226;2022-12-07T13:25:38;18.85;;;12.05;;
22652;SDS011;11493;43.344;26.226;2022-12-07T13:30:49;19.42;;;13.23;;
22652;SDS011;11493;43.344;26.226;2022-12-07T13:33:27;18.65;;;12.93;;
22652;SDS011;11493;43.344;26.226;2022-12-07T13:35:57;19.73;;;13.00;;
22652;SDS011;11493;43.344;26.226;2022-12-07T13:38:28;19.48;;;12.35;;
22652;SDS011;11493;43.344;26.226;2022-12-07T13:41:11;19.60;;;14.75;;
22652;SDS011;11493;43.344;26.226;2022-12-07T13:43:47;18.23;;;11.40;;
22652;SDS011;11493;43.344;26.226;2022-12-07T13:46:31;25.30;;;13.30;;
22652;SDS011;11493;43.344;26.226;2022-12-07T13:49:17;19.33;;;13.52;;
22652;SDS011;11493;43.344;26.226;2022-12-07T13:51:53;22.70;;;13.25;;
22652;SDS011;11493;43.344;26.226;2022-12-07T13:54:24;27.08;;;16.90;;
22652;SDS011;11493;43.344;26.226;2022-12-07T13:56:52;26.63;;;17.00;;
22652;SDS011;11493;43.344;26.226;2022-12-07T13:59:23;28.38;;;16.10;;
22652;SDS011;11493;43.344;26.226;2022-12-07T14:01:55;27.23;;;18.30;;
22652;SDS011;11493;43.344;26.226;2022-12-07T14:09:57;31.65;;;20.23;;
22652;SDS011;11493;43.344;26.226;2022-12-07T14:12:35;42.33;;;24.35;;
22652;SDS011;11493;43.344;26.226;2022-12-07T14:15:28;40.92;;;27.35;;
22652;SDS011;11493;43.344;26.226;2022-12-07T14:20:34;56.92;;;30.90;;
22652;SDS011;11493;43.344;26.226;2022-12-07T14:23:28;56.92;;;33.38;;
22652;SDS011;11493;43.344;26.226;2022-12-07T14:26:04;52.47;;;32.03;;
22652;SDS011;11493;43.344;26.226;2022-12-07T14:28:35;57.17;;;35.08;;
22652;SDS011;11493;43.344;26.226;2022-12-07T14:31:10;65.18;;;33.90;;
22652;SDS011;11493;43.344;26.226;2022-12-07T14:33:50;58.67;;;36.70;;
22652;SDS011;11493;43.344;26.226;2022-12-07T14:36:19;64.35;;;35.30;;
22652;SDS011;11493;43.344;26.226;2022-12-07T14:38:52;67.20;;;35.15;;
22652;SDS011;11493;43.344;26.226;2022-12-07T14:41:24;67.57;;;35.83;;
22652;SDS011;11493;43.344;26.226;2022-12-07T14:44:12;79.38;;;41.15;;
22652;SDS011;11493;43.344;26.226;2022-12-07T14:46:50;75.03;;;40.53;;
22652;SDS011;11493;43.344;26.226;2022-12-07T14:49:38;77.13;;;42.30;;
22652;SDS011;11493;43.344;26.226;2022-12-07T14:52:06;84.72;;;44.50;;
22652;SDS011;11493;43.344;26.226;2022-12-07T14:55:01;102.03;;;52.50;;
22652;SDS011;11493;43.344;26.226;2022-12-07T14:57:28;104.38;;;52.85;;
22652;SDS011;11493;43.344;26.226;2022-12-07T14:59:56;101.78;;;52.47;;
22652;SDS011;11493;43.344;26.226;2022-12-07T15:02:23;95.40;;;55.05;;
22652;SDS011;11493;43.344;26.226;2022-12-07T15:04:50;104.05;;;50.28;;
22652;SDS011;11493;43.344;26.226;2022-12-07T15:07:18;97.88;;;53.42;;
22652;SDS011;11493;43.344;26.226;2022-12-07T15:09:47;86.60;;;47.35;;
22652;SDS011;11493;43.344;26.226;2022-12-07T15:12:15;90.95;;;47.17;;
22652;SDS011;11493;43.344;26.226;2022-12-07T15:14:42;87.32;;;45.53;;
22652;SDS011;11493;43.344;26.226;2022-12-07T15:17:10;86.43;;;43.50;;
22652;SDS011;11493;43.344;26.226;2022-12-07T15:19:53;95.57;;;45.08;;
22652;SDS011;11493;43.344;26.226;2022-12-07T15:22:21;106.25;;;51.25;;
22652;SDS011;11493;43.344;26.226;2022-12-07T15:24:48;110.35;;;55.28;;
22652;SDS011;11493;43.344;26.226;2022-12-07T15:27:15;132.82;;;60.10;;
22652;SDS011;11493;43.344;26.226;2022-12-07T15:29:42;115.13;;;57.50;;
22652;SDS011;11493;43.344;26.226;2022-12-07T15:32:11;150.25;;;72.28;;
22652;SDS011;11493;43.344;26.226;2022-12-07T15:34:38;149.43;;;74.40;;
22652;SDS011;11493;43.344;26.226;2022-12-07T15:37:06;145.65;;;78.22;;
22652;SDS011;11493;43.344;26.226;2022-12-07T15:39:35;143.35;;;76.70;;
22652;SDS011;11493;43.344;26.226;2022-12-07T15:42:03;146.23;;;76.32;;
22652;SDS011;11493;43.344;26.226;2022-12-07T15:44:33;117.15;;;57.90;;
22652;SDS011;11493;43.344;26.226;2022-12-07T15:47:19;137.70;;;66.72;;
22652;SDS011;11493;43.344;26.226;2022-12-07T15:49:47;107.30;;;46.28;;
22652;SDS011;11493;43.344;26.226;2022-12-07T15:52:14;137.90;;;67.22;;
22652;SDS011;11493;43.344;26.226;2022-12-07T15:54:44;201.52;;;103.60;;
22652;SDS011;11493;43.344;26.226;2022-12-07T15:57:11;183.05;;;98.78;;
22652;SDS011;11493;43.344;26.226;2022-12-07T15:59:47;197.55;;;101.85;;
22652;SDS011;11493;43.344;26.226;2022-12-07T16:02:14;187.02;;;99.78;;
22652;SDS011;11493;43.344;26.226;2022-12-07T16:04:42;182.52;;;100.60;;
22652;SDS011;11493;43.344;26.226;2022-12-07T16:07:09;200.63;;;100.45;;
22652;SDS011;11493;43.344;26.226;2022-12-07T16:09:38;211.07;;;109.55;;
22652;SDS011;11493;43.344;26.226;2022-12-07T16:12:08;244.25;;;122.80;;
22652;SDS011;11493;43.344;26.226;2022-12-07T16:14:37;224.98;;;112.95;;
22652;SDS011;11493;43.344;26.226;2022-12-07T16:17:05;194.35;;;103.10;;
22652;SDS011;11493;43.344;26.226;2022-12-07T16:19:33;265.98;;;130.70;;
22652;SDS011;11493;43.344;26.226;2022-12-07T16:22:00;255.13;;;124.07;;
22652;SDS011;11493;43.344;26.226;2022-12-07T16:24:28;184.57;;;95.65;;
22652;SDS011;11493;43.344;26.226;2022-12-07T16:26:55;184.50;;;96.57;;
22652;SDS011;11493;43.344;26.226;2022-12-07T16:29:23;182.82;;;88.80;;
22652;SDS011;11493;43.344;26.226;2022-12-07T16:32:09;177.15;;;86.55;;
22652;SDS011;11493;43.344;26.226;2022-12-07T16:34:36;173.20;;;83.88;;
22652;SDS011;11493;43.344;26.226;2022-12-07T16:37:03;164.27;;;84.60;;
22652;SDS011;11493;43.344;26.226;2022-12-07T16:39:32;171.30;;;86.47;;
22652;SDS011;11493;43.344;26.226;2022-12-07T16:42:04;163.35;;;87.72;;
22652;SDS011;11493;43.344;26.226;2022-12-07T16:44:32;138.02;;;76.18;;
22652;SDS011;11493;43.344;26.226;2022-12-07T16:46:59;139.45;;;76.05;;
22652;SDS011;11493;43.344;26.226;2022-12-07T16:49:28;206.02;;;96.85;;